METAR AND TAF INFORMATION
METAR FOR SBPC
ADDS - METARS form results

(1149 UTC 19 May 2019)
Data provider http://aviationweather.gov/metar/data/
 
METAR text: SBPC 191100Z 10004KT 9999 OVC010 16/16 Q1022
Conditions at: SBPC (POCOS DE CALDAS , BR) observed 1100 UTC 19 May 2019
Temperature: 16.0°C (61°F)
Dewpoint: 16.0°C (61°F) [RH = 100%]
Pressure (altimeter): 30.18 inches Hg (1022.0 mb)
Winds: from the E (100 degrees) at 5 MPH (4 knots; 2.1 m/s)
Visibility: 6 or more miles (10+ km)
Ceiling: 1000 feet AGL
Clouds: overcast cloud deck at 1000 feet AGL
Weather: no significant weather observed at this time

 AIRPORT MAP

 RUNWAY INFORMATION
Runway 9 Runway length 4970 ft Runway width 98 ft
Runway elevation 0 ft Runway displaced threshold 0 ft Runway heading 0
Runway 27 Runway length 4970 ft Runway width 98 ft
Runway elevation 0 ft Runway displaced threshold 0 ft Runway heading 0

 AIRPORT FREQUENCIES
Type AFIS Name RDO Frequency 126.6 MHZ

 AIRPORT NEAR NAVIGATION AIDS
Type NDB Name Pocos Frequency 415 KHZ



Powered by Virtual Airlines Manager [v2.6.2]